MMSM 082046Z 30004KT 6SM SKC 24/M01 A3030 RMK HZY DU= 082046

MMSM 081944Z 00000KT 6SM SKC 24/M02 A3034 RMK HZY DU MSGTX MMMX= 081944

MMSM 081840Z 34004KT 6SM SCT200 23/01 A3036 RMK 8/002 HZY DU MSGTX MMMX= 081840

MMSM 081820Z RTD 15003KT 6SM SCT200 23/02 A3037 RMK 8/002 HZY DU RTS MSGTX MMMX= 081820

MMSM 072044Z 00000KT 6SM SKC 25/00 A3025 RMK HZY DU MSGTX MMMX= 072044

MMSM 071944Z 28002KT 6SM SKC 25/M03 A3025 RMK HZY DU MSGTX MMMX= 071944

SPECI MMSM 071923Z 13005KT 6SM SKC 24/00 A3027 RMK HZY DU MSGTX MMMX= 071923

MMSM 071854Z 23005KT 5SM SKC 22/02 A3030 RMK HZY DU MSGTX MMMX= 071854

SPECI MMSM 071853Z 22004KT 5SM SKC 22/02 A3030 RMK HZY DU MSGTX MMMX= 071853

SPECI MMSM 071826Z 00000KT 5SM SKC 20/03 A3031 RMK HZY DU MSGTX MMMX= 071826

MMSM 071813Z RTD 17003KT 6SM SKC 18/03 A3032 RMK HZY DU MSGTX MMMX= 071813

MMSM 071641Z 26002KT 6SM SKC 17/05 A3038 RMK HZY DU MSGTX MMMX= 071641

MMSM 071543Z 10006KT 6SM SKC 16/05 A3038 RMK HZY DU RTS MSGTX MMMX= 071543

MMSM 042043Z 35004KT 7SM SKC 23/M02 A3030 RMK SLP/// 5//// 9// HZY DU MSGTX MMMX= 042043

MMSM 041946Z 02008KT 7SM SKC 23/M03 A3031 RMK HZY DU CU MSGTX MMMX= 041946

SPECI MMSM 041935Z 05007KT 7SM SKC 23/M02 A3031 NOSIG RMK HZY DU CU MSGTX MMMX= 041935

MMSM 041853Z 31004KT 7SM SKC 21/00 A3034 RMK HZY DU CU MSGTX MMMX= 041853

SPECI MMSM 041839Z 36006KT 7SM SKC 21/01 A3035 RMK HZY DU CU MSGTX MMMX= 041839

MMSM 041750Z 11003KT 7SM SKC 19/02 A3040 RMK HZY DU MSGTX MMMX= 041750

SPECI MMSM 041732Z 17002KT 7SM SKC 18/02 A3041 RMK HZY DU MSGTX MMMX= 041732

MMSM 041642Z 08003KT 7SM SKC 16/02 A3042 RMK HZY DU MSGTX MMMX= 041642

SPECI MMSM 041619Z 05004KT 7SM SKC 15/03 A3042 RMK HZY DU MSGTX MMMX= 041619

MMSM 041543Z 07003KT 7SM SKC 13/04 A3043 RMK HZY DU MSGTX MMMX= 041543

MMSM 021745Z 00000KT 6SM SKC 18/M02 A3045 RMK HZY DU MSGTX MMMX= 021745

MMSM 021651Z 36003KT 6SM SKC 17/M01 A3048 RMK HZY DU MSGTX MMMX= 021651

SPECI MMSM 021645Z 35004KT 6SM SKC 17/00 A3048 RMK HZY DU MSGTX MMMX= 021645

MMSM 021544Z 08002KT 6SM SKC 15/01 A3048 RMK HZY DU MSGTX MMMX= 021544

MMSM 021530Z RTD 05003KT 6SM SKC 14/03 A3048 RMK HZY DU RTS MSGTX MMMX= 021530

MMSM 012048Z 35009KT 6SM SCT020 BKN200 24/01 A3031 RMK 8/102 HZY DU AC= 012048

MMSM 011950Z 36010KT 6SM SCT020 SCT200 24/02 A3032 RMK 8/102 HZY DU MSGTX MMMX= 011950

MMSM 011852Z 07009KT 6SM FEW020 SCT200 23/02 A3036 RMK 8/102 HZY DU MSGTX MMMX= 011852

SPECI MMSM 011839Z 03003KT 6SM FEW020 SCT200 23/01 A3036 RMK 8/102 HZY DU MSGTX MMMX= 011839

MMSM 011751Z 33003KT 5SM SCT200 21/05 A3040 RMK 8/002 HZY DU ISOL CU MSGTX MMMX= 011751

SPECI MMSM 011738Z 26002KT 5SM SCT200 20/05 A3041 RMK 8/002 HZY DU ISOL CU MSGTX MMMX= 011738

MMSM 011642Z 33004KT 5SM SCT200 18/04 A3045 RMK 8/002 HZY DU MSGTX MMMX= 011642

MMSM 011552Z 16003KT 5SM BKN200 17/03 A3045 RMK 8/008 HZY DU RTS MSGTX MMMX= 011552